sensor_id;sensor_type;location;lat;lon;timestamp;P1;durP1;ratioP1;P2;durP2;ratioP2
77453;SDS011;66538;53.150;18.160;2023-02-23T00:01:50;15.30;;;5.30;;
77453;SDS011;66538;53.150;18.160;2023-02-23T00:04:16;12.90;;;5.30;;
77453;SDS011;66538;53.150;18.160;2023-02-23T00:06:44;13.10;;;5.80;;
77453;SDS011;66538;53.150;18.160;2023-02-23T00:09:10;13.80;;;5.50;;
77453;SDS011;66538;53.150;18.160;2023-02-23T00:11:40;14.00;;;5.70;;
77453;SDS011;66538;53.150;18.160;2023-02-23T00:14:07;14.70;;;5.80;;
77453;SDS011;66538;53.150;18.160;2023-02-23T00:16:33;15.70;;;5.00;;
77453;SDS011;66538;53.150;18.160;2023-02-23T00:19:00;12.80;;;5.60;;
77453;SDS011;66538;53.150;18.160;2023-02-23T00:21:28;13.70;;;5.00;;
77453;SDS011;66538;53.150;18.160;2023-02-23T00:23:59;11.20;;;5.20;;
77453;SDS011;66538;53.150;18.160;2023-02-23T00:26:28;15.00;;;4.90;;
77453;SDS011;66538;53.150;18.160;2023-02-23T00:29:00;7.40;;;2.80;;
77453;SDS011;66538;53.150;18.160;2023-02-23T00:31:29;12.30;;;5.00;;
77453;SDS011;66538;53.150;18.160;2023-02-23T00:33:59;11.20;;;5.10;;
77453;SDS011;66538;53.150;18.160;2023-02-23T00:36:30;7.80;;;3.30;;
77453;SDS011;66538;53.150;18.160;2023-02-23T00:39:00;9.60;;;3.50;;
77453;SDS011;66538;53.150;18.160;2023-02-23T00:41:29;12.00;;;4.80;;
77453;SDS011;66538;53.150;18.160;2023-02-23T00:43:57;12.00;;;4.60;;
77453;SDS011;66538;53.150;18.160;2023-02-23T00:46:27;11.00;;;4.60;;
77453;SDS011;66538;53.150;18.160;2023-02-23T00:48:56;22.70;;;7.50;;
77453;SDS011;66538;53.150;18.160;2023-02-23T00:51:24;14.80;;;6.40;;
77453;SDS011;66538;53.150;18.160;2023-02-23T00:53:53;19.70;;;6.80;;
77453;SDS011;66538;53.150;18.160;2023-02-23T00:56:20;15.40;;;6.80;;
77453;SDS011;66538;53.150;18.160;2023-02-23T00:58:48;14.50;;;5.50;;
77453;SDS011;66538;53.150;18.160;2023-02-23T01:01:15;13.90;;;5.30;;
77453;SDS011;66538;53.150;18.160;2023-02-23T01:03:43;16.20;;;6.80;;
77453;SDS011;66538;53.150;18.160;2023-02-23T01:06:12;13.00;;;5.50;;
77453;SDS011;66538;53.150;18.160;2023-02-23T01:08:41;12.80;;;4.50;;
77453;SDS011;66538;53.150;18.160;2023-02-23T01:11:12;14.00;;;5.10;;
77453;SDS011;66538;53.150;18.160;2023-02-23T01:13:41;13.40;;;6.00;;
77453;SDS011;66538;53.150;18.160;2023-02-23T01:16:10;12.60;;;5.30;;
77453;SDS011;66538;53.150;18.160;2023-02-23T01:18:41;11.90;;;4.30;;
77453;SDS011;66538;53.150;18.160;2023-02-23T01:21:14;11.80;;;4.90;;
77453;SDS011;66538;53.150;18.160;2023-02-23T01:23:43;12.50;;;5.40;;
77453;SDS011;66538;53.150;18.160;2023-02-23T01:26:18;13.40;;;4.90;;
77453;SDS011;66538;53.150;18.160;2023-02-23T01:31:18;10.50;;;4.10;;
77453;SDS011;66538;53.150;18.160;2023-02-23T01:33:45;11.70;;;4.50;;
77453;SDS011;66538;53.150;18.160;2023-02-23T01:36:12;14.00;;;5.40;;
77453;SDS011;66538;53.150;18.160;2023-02-23T01:38:39;15.70;;;6.50;;
77453;SDS011;66538;53.150;18.160;2023-02-23T01:41:06;24.20;;;7.00;;
77453;SDS011;66538;53.150;18.160;2023-02-23T01:43:34;18.40;;;6.90;;
77453;SDS011;66538;53.150;18.160;2023-02-23T01:46:02;14.60;;;5.50;;
77453;SDS011;66538;53.150;18.160;2023-02-23T01:48:36;14.50;;;5.50;;
77453;SDS011;66538;53.150;18.160;2023-02-23T01:51:09;11.40;;;4.90;;
77453;SDS011;66538;53.150;18.160;2023-02-23T01:53:39;12.00;;;5.10;;
77453;SDS011;66538;53.150;18.160;2023-02-23T01:56:13;11.70;;;5.30;;
77453;SDS011;66538;53.150;18.160;2023-02-23T01:58:45;15.60;;;5.80;;
77453;SDS011;66538;53.150;18.160;2023-02-23T02:01:17;11.10;;;4.70;;
77453;SDS011;66538;53.150;18.160;2023-02-23T02:03:45;11.00;;;4.90;;
77453;SDS011;66538;53.150;18.160;2023-02-23T02:06:18;12.30;;;5.40;;
77453;SDS011;66538;53.150;18.160;2023-02-23T02:08:50;8.90;;;3.60;;
77453;SDS011;66538;53.150;18.160;2023-02-23T02:11:21;10.80;;;4.60;;
77453;SDS011;66538;53.150;18.160;2023-02-23T02:13:56;13.60;;;5.20;;
77453;SDS011;66538;53.150;18.160;2023-02-23T02:30:29;14.00;;;5.40;;
77453;SDS011;66538;53.150;18.160;2023-02-23T02:35:58;15.50;;;5.50;;
77453;SDS011;66538;53.150;18.160;2023-02-23T02:41:51;15.80;;;5.60;;
77453;SDS011;66538;53.150;18.160;2023-02-23T02:44:35;13.10;;;4.30;;
77453;SDS011;66538;53.150;18.160;2023-02-23T02:47:11;14.10;;;5.30;;
77453;SDS011;66538;53.150;18.160;2023-02-23T02:52:46;14.90;;;6.30;;
77453;SDS011;66538;53.150;18.160;2023-02-23T02:55:23;14.10;;;5.30;;
77453;SDS011;66538;53.150;18.160;2023-02-23T02:57:55;14.10;;;5.20;;
77453;SDS011;66538;53.150;18.160;2023-02-23T03:00:28;13.80;;;5.40;;
77453;SDS011;66538;53.150;18.160;2023-02-23T03:03:32;10.60;;;3.80;;
77453;SDS011;66538;53.150;18.160;2023-02-23T03:06:21;10.20;;;4.30;;
77453;SDS011;66538;53.150;18.160;2023-02-23T03:15:58;10.50;;;4.80;;
77453;SDS011;66538;53.150;18.160;2023-02-23T03:21:14;9.90;;;4.60;;
77453;SDS011;66538;53.150;18.160;2023-02-23T03:27:22;12.30;;;5.20;;
77453;SDS011;66538;53.150;18.160;2023-02-23T03:30:21;15.30;;;5.20;;
77453;SDS011;66538;53.150;18.160;2023-02-23T03:33:15;15.20;;;5.30;;
77453;SDS011;66538;53.150;18.160;2023-02-23T03:36:10;11.10;;;5.40;;
77453;SDS011;66538;53.150;18.160;2023-02-23T03:41:57;10.00;;;4.20;;
77453;SDS011;66538;53.150;18.160;2023-02-23T03:44:47;16.40;;;5.00;;
77453;SDS011;66538;53.150;18.160;2023-02-23T03:47:36;12.20;;;5.10;;
77453;SDS011;66538;53.150;18.160;2023-02-23T03:53:27;12.40;;;5.70;;
77453;SDS011;66538;53.150;18.160;2023-02-23T03:56:20;9.70;;;3.20;;
77453;SDS011;66538;53.150;18.160;2023-02-23T03:59:10;12.10;;;5.10;;
77453;SDS011;66538;53.150;18.160;2023-02-23T04:01:59;16.90;;;6.20;;
77453;SDS011;66538;53.150;18.160;2023-02-23T04:04:46;15.50;;;5.80;;
77453;SDS011;66538;53.150;18.160;2023-02-23T04:07:33;10.40;;;4.50;;
77453;SDS011;66538;53.150;18.160;2023-02-23T04:10:22;10.70;;;4.30;;
77453;SDS011;66538;53.150;18.160;2023-02-23T04:13:13;12.40;;;4.50;;
77453;SDS011;66538;53.150;18.160;2023-02-23T04:15:47;13.00;;;5.30;;
77453;SDS011;66538;53.150;18.160;2023-02-23T04:18:26;9.90;;;3.80;;
77453;SDS011;66538;53.150;18.160;2023-02-23T04:20:56;12.60;;;5.50;;
77453;SDS011;66538;53.150;18.160;2023-02-23T04:23:23;12.10;;;5.10;;
77453;SDS011;66538;53.150;18.160;2023-02-23T04:25:51;13.00;;;5.40;;
77453;SDS011;66538;53.150;18.160;2023-02-23T04:28:19;10.90;;;4.80;;
77453;SDS011;66538;53.150;18.160;2023-02-23T04:30:46;10.10;;;4.60;;
77453;SDS011;66538;53.150;18.160;2023-02-23T04:33:13;9.60;;;4.60;;
77453;SDS011;66538;53.150;18.160;2023-02-23T04:35:40;12.70;;;5.30;;
77453;SDS011;66538;53.150;18.160;2023-02-23T04:38:07;10.90;;;4.60;;
77453;SDS011;66538;53.150;18.160;2023-02-23T04:40:34;10.80;;;4.70;;
77453;SDS011;66538;53.150;18.160;2023-02-23T04:43:01;12.30;;;4.80;;
77453;SDS011;66538;53.150;18.160;2023-02-23T04:45:28;11.90;;;5.10;;
77453;SDS011;66538;53.150;18.160;2023-02-23T04:47:54;6.10;;;2.90;;
77453;SDS011;66538;53.150;18.160;2023-02-23T04:50:21;9.80;;;4.40;;
77453;SDS011;66538;53.150;18.160;2023-02-23T04:52:48;11.20;;;4.90;;
77453;SDS011;66538;53.150;18.160;2023-02-23T04:55:16;10.60;;;4.90;;
77453;SDS011;66538;53.150;18.160;2023-02-23T04:57:45;8.30;;;3.50;;
77453;SDS011;66538;53.150;18.160;2023-02-23T05:00:12;10.60;;;4.10;;
77453;SDS011;66538;53.150;18.160;2023-02-23T05:02:40;13.20;;;5.70;;
77453;SDS011;66538;53.150;18.160;2023-02-23T05:05:07;11.90;;;4.80;;
77453;SDS011;66538;53.150;18.160;2023-02-23T05:07:35;9.60;;;3.80;;
77453;SDS011;66538;53.150;18.160;2023-02-23T05:10:03;10.30;;;4.60;;
77453;SDS011;66538;53.150;18.160;2023-02-23T05:12:31;9.50;;;3.70;;
77453;SDS011;66538;53.150;18.160;2023-02-23T05:14:58;19.00;;;7.90;;
77453;SDS011;66538;53.150;18.160;2023-02-23T05:17:25;12.10;;;6.10;;
77453;SDS011;66538;53.150;18.160;2023-02-23T05:19:52;12.70;;;5.20;;
77453;SDS011;66538;53.150;18.160;2023-02-23T05:22:18;16.30;;;6.40;;
77453;SDS011;66538;53.150;18.160;2023-02-23T05:24:45;11.80;;;4.70;;
77453;SDS011;66538;53.150;18.160;2023-02-23T05:27:13;16.40;;;7.90;;
77453;SDS011;66538;53.150;18.160;2023-02-23T05:29:40;14.10;;;7.00;;
77453;SDS011;66538;53.150;18.160;2023-02-23T05:32:07;19.50;;;7.70;;
77453;SDS011;66538;53.150;18.160;2023-02-23T05:34:33;20.80;;;9.70;;
77453;SDS011;66538;53.150;18.160;2023-02-23T05:37:00;14.40;;;6.30;;
77453;SDS011;66538;53.150;18.160;2023-02-23T05:39:27;21.80;;;8.50;;
77453;SDS011;66538;53.150;18.160;2023-02-23T05:41:54;16.90;;;6.90;;
77453;SDS011;66538;53.150;18.160;2023-02-23T05:44:20;17.20;;;7.40;;
77453;SDS011;66538;53.150;18.160;2023-02-23T05:46:47;16.60;;;7.90;;
77453;SDS011;66538;53.150;18.160;2023-02-23T05:49:13;24.80;;;11.40;;
77453;SDS011;66538;53.150;18.160;2023-02-23T05:51:40;17.00;;;6.80;;
77453;SDS011;66538;53.150;18.160;2023-02-23T05:54:07;24.30;;;9.30;;
77453;SDS011;66538;53.150;18.160;2023-02-23T05:56:34;20.20;;;9.00;;
77453;SDS011;66538;53.150;18.160;2023-02-23T05:59:02;20.50;;;9.50;;
77453;SDS011;66538;53.150;18.160;2023-02-23T06:01:30;23.90;;;11.10;;
77453;SDS011;66538;53.150;18.160;2023-02-23T06:03:57;19.30;;;9.30;;
77453;SDS011;66538;53.150;18.160;2023-02-23T06:06:23;19.30;;;9.50;;
77453;SDS011;66538;53.150;18.160;2023-02-23T06:08:54;11.80;;;5.70;;
77453;SDS011;66538;53.150;18.160;2023-02-23T06:11:21;11.40;;;5.40;;
77453;SDS011;66538;53.150;18.160;2023-02-23T06:13:48;14.00;;;6.10;;
77453;SDS011;66538;53.150;18.160;2023-02-23T06:16:15;9.30;;;4.10;;
77453;SDS011;66538;53.150;18.160;2023-02-23T06:18:42;16.80;;;6.00;;
77453;SDS011;66538;53.150;18.160;2023-02-23T06:21:09;14.40;;;6.40;;
77453;SDS011;66538;53.150;18.160;2023-02-23T06:23:35;11.50;;;5.40;;
77453;SDS011;66538;53.150;18.160;2023-02-23T06:26:03;12.10;;;5.30;;
77453;SDS011;66538;53.150;18.160;2023-02-23T06:28:30;14.70;;;6.30;;
77453;SDS011;66538;53.150;18.160;2023-02-23T06:30:56;17.90;;;7.10;;
77453;SDS011;66538;53.150;18.160;2023-02-23T06:33:23;10.70;;;4.40;;
77453;SDS011;66538;53.150;18.160;2023-02-23T06:35:50;17.80;;;7.60;;
77453;SDS011;66538;53.150;18.160;2023-02-23T06:38:18;13.60;;;6.50;;
77453;SDS011;66538;53.150;18.160;2023-02-23T06:40:45;14.90;;;6.00;;
77453;SDS011;66538;53.150;18.160;2023-02-23T06:43:12;12.30;;;5.60;;
77453;SDS011;66538;53.150;18.160;2023-02-23T06:45:39;12.80;;;6.20;;
77453;SDS011;66538;53.150;18.160;2023-02-23T06:48:06;13.30;;;6.00;;
77453;SDS011;66538;53.150;18.160;2023-02-23T06:50:33;4.80;;;2.20;;
77453;SDS011;66538;53.150;18.160;2023-02-23T06:53:00;12.00;;;5.30;;
77453;SDS011;66538;53.150;18.160;2023-02-23T06:55:26;11.90;;;4.80;;
77453;SDS011;66538;53.150;18.160;2023-02-23T06:57:53;7.60;;;3.20;;
77453;SDS011;66538;53.150;18.160;2023-02-23T07:00:20;12.00;;;6.60;;
77453;SDS011;66538;53.150;18.160;2023-02-23T07:02:47;12.50;;;6.00;;
77453;SDS011;66538;53.150;18.160;2023-02-23T07:05:13;17.60;;;7.10;;
77453;SDS011;66538;53.150;18.160;2023-02-23T07:07:40;16.90;;;8.00;;
77453;SDS011;66538;53.150;18.160;2023-02-23T07:10:07;11.30;;;5.20;;
77453;SDS011;66538;53.150;18.160;2023-02-23T07:12:34;16.90;;;7.50;;
77453;SDS011;66538;53.150;18.160;2023-02-23T07:15:01;12.60;;;5.90;;
77453;SDS011;66538;53.150;18.160;2023-02-23T07:17:27;16.00;;;6.70;;
77453;SDS011;66538;53.150;18.160;2023-02-23T07:19:54;12.30;;;5.60;;
77453;SDS011;66538;53.150;18.160;2023-02-23T07:22:20;9.70;;;3.90;;
77453;SDS011;66538;53.150;18.160;2023-02-23T07:24:47;12.40;;;6.00;;
77453;SDS011;66538;53.150;18.160;2023-02-23T07:27:14;12.50;;;5.40;;
77453;SDS011;66538;53.150;18.160;2023-02-23T07:29:41;12.80;;;6.40;;
77453;SDS011;66538;53.150;18.160;2023-02-23T07:32:08;13.20;;;6.40;;
77453;SDS011;66538;53.150;18.160;2023-02-23T07:34:34;14.10;;;7.00;;
77453;SDS011;66538;53.150;18.160;2023-02-23T07:37:02;12.00;;;5.60;;
77453;SDS011;66538;53.150;18.160;2023-02-23T07:39:29;13.80;;;6.00;;
77453;SDS011;66538;53.150;18.160;2023-02-23T07:41:56;18.00;;;7.60;;
77453;SDS011;66538;53.150;18.160;2023-02-23T07:44:23;12.50;;;5.70;;
77453;SDS011;66538;53.150;18.160;2023-02-23T07:46:50;17.30;;;7.30;;
77453;SDS011;66538;53.150;18.160;2023-02-23T07:49:18;15.80;;;7.00;;
77453;SDS011;66538;53.150;18.160;2023-02-23T07:51:44;18.10;;;7.70;;
77453;SDS011;66538;53.150;18.160;2023-02-23T07:54:11;13.50;;;5.40;;
77453;SDS011;66538;53.150;18.160;2023-02-23T07:56:38;10.70;;;5.20;;
77453;SDS011;66538;53.150;18.160;2023-02-23T07:59:05;15.50;;;6.60;;
77453;SDS011;66538;53.150;18.160;2023-02-23T08:01:32;11.20;;;5.50;;
77453;SDS011;66538;53.150;18.160;2023-02-23T08:03:59;11.70;;;4.30;;
77453;SDS011;66538;53.150;18.160;2023-02-23T08:06:26;15.90;;;7.20;;
77453;SDS011;66538;53.150;18.160;2023-02-23T08:08:53;10.60;;;5.00;;
77453;SDS011;66538;53.150;18.160;2023-02-23T08:11:19;13.10;;;6.70;;
77453;SDS011;66538;53.150;18.160;2023-02-23T08:13:46;13.80;;;6.00;;
77453;SDS011;66538;53.150;18.160;2023-02-23T08:16:13;17.70;;;7.60;;
77453;SDS011;66538;53.150;18.160;2023-02-23T08:18:41;14.60;;;6.60;;
77453;SDS011;66538;53.150;18.160;2023-02-23T08:21:08;17.00;;;7.60;;
77453;SDS011;66538;53.150;18.160;2023-02-23T08:23:34;13.60;;;5.90;;
77453;SDS011;66538;53.150;18.160;2023-02-23T08:26:01;18.90;;;7.40;;
77453;SDS011;66538;53.150;18.160;2023-02-23T08:28:28;16.60;;;6.40;;
77453;SDS011;66538;53.150;18.160;2023-02-23T08:30:55;11.50;;;4.40;;
77453;SDS011;66538;53.150;18.160;2023-02-23T08:33:22;15.20;;;7.00;;
77453;SDS011;66538;53.150;18.160;2023-02-23T08:35:49;11.00;;;5.10;;
77453;SDS011;66538;53.150;18.160;2023-02-23T08:38:18;14.50;;;6.00;;
77453;SDS011;66538;53.150;18.160;2023-02-23T08:40:45;5.90;;;2.40;;
77453;SDS011;66538;53.150;18.160;2023-02-23T08:43:12;10.30;;;4.60;;
77453;SDS011;66538;53.150;18.160;2023-02-23T08:45:39;15.80;;;6.40;;
77453;SDS011;66538;53.150;18.160;2023-02-23T08:48:06;16.20;;;7.60;;
77453;SDS011;66538;53.150;18.160;2023-02-23T08:50:34;11.30;;;5.70;;
77453;SDS011;66538;53.150;18.160;2023-02-23T08:53:01;15.80;;;7.70;;
77453;SDS011;66538;53.150;18.160;2023-02-23T08:55:28;13.70;;;6.90;;
77453;SDS011;66538;53.150;18.160;2023-02-23T08:57:54;13.70;;;7.10;;
77453;SDS011;66538;53.150;18.160;2023-02-23T09:00:21;10.00;;;4.30;;
77453;SDS011;66538;53.150;18.160;2023-02-23T09:02:48;11.30;;;4.80;;
77453;SDS011;66538;53.150;18.160;2023-02-23T09:05:15;9.80;;;3.80;;
77453;SDS011;66538;53.150;18.160;2023-02-23T09:07:43;9.40;;;3.90;;
77453;SDS011;66538;53.150;18.160;2023-02-23T09:10:12;22.60;;;8.90;;
77453;SDS011;66538;53.150;18.160;2023-02-23T09:12:40;17.20;;;7.40;;
77453;SDS011;66538;53.150;18.160;2023-02-23T09:15:07;17.60;;;8.60;;
77453;SDS011;66538;53.150;18.160;2023-02-23T09:17:35;13.70;;;5.90;;
77453;SDS011;66538;53.150;18.160;2023-02-23T09:20:02;16.50;;;8.40;;
77453;SDS011;66538;53.150;18.160;2023-02-23T09:22:30;11.30;;;5.30;;
77453;SDS011;66538;53.150;18.160;2023-02-23T09:24:57;20.60;;;8.00;;
77453;SDS011;66538;53.150;18.160;2023-02-23T09:27:23;15.00;;;7.00;;
77453;SDS011;66538;53.150;18.160;2023-02-23T09:29:50;16.00;;;8.40;;
77453;SDS011;66538;53.150;18.160;2023-02-23T09:32:16;17.50;;;8.00;;
77453;SDS011;66538;53.150;18.160;2023-02-23T09:34:43;16.40;;;7.30;;
77453;SDS011;66538;53.150;18.160;2023-02-23T09:37:10;17.40;;;7.90;;
77453;SDS011;66538;53.150;18.160;2023-02-23T09:39:36;15.00;;;7.20;;
77453;SDS011;66538;53.150;18.160;2023-02-23T09:42:09;14.10;;;6.20;;
77453;SDS011;66538;53.150;18.160;2023-02-23T09:47:30;16.10;;;8.10;;
77453;SDS011;66538;53.150;18.160;2023-02-23T09:50:12;11.10;;;4.10;;
77453;SDS011;66538;53.150;18.160;2023-02-23T09:52:44;19.30;;;8.70;;
77453;SDS011;66538;53.150;18.160;2023-02-23T09:55:14;20.00;;;7.90;;
77453;SDS011;66538;53.150;18.160;2023-02-23T09:57:43;18.90;;;9.00;;
77453;SDS011;66538;53.150;18.160;2023-02-23T10:00:22;17.70;;;8.20;;
77453;SDS011;66538;53.150;18.160;2023-02-23T10:05:19;17.10;;;7.80;;
77453;SDS011;66538;53.150;18.160;2023-02-23T10:07:55;16.70;;;7.10;;
77453;SDS011;66538;53.150;18.160;2023-02-23T10:13:43;15.70;;;7.50;;
77453;SDS011;66538;53.150;18.160;2023-02-23T10:16:20;12.40;;;6.10;;
77453;SDS011;66538;53.150;18.160;2023-02-23T10:18:57;17.50;;;9.00;;
77453;SDS011;66538;53.150;18.160;2023-02-23T10:21:37;21.10;;;10.80;;
77453;SDS011;66538;53.150;18.160;2023-02-23T10:24:08;18.10;;;8.30;;
77453;SDS011;66538;53.150;18.160;2023-02-23T10:26:50;19.60;;;9.00;;
77453;SDS011;66538;53.150;18.160;2023-02-23T10:29:27;12.80;;;7.10;;
77453;SDS011;66538;53.150;18.160;2023-02-23T10:32:05;16.00;;;8.90;;
77453;SDS011;66538;53.150;18.160;2023-02-23T10:34:40;14.50;;;7.00;;
77453;SDS011;66538;53.150;18.160;2023-02-23T10:37:09;13.30;;;6.50;;
77453;SDS011;66538;53.150;18.160;2023-02-23T10:39:38;11.40;;;6.40;;
77453;SDS011;66538;53.150;18.160;2023-02-23T10:42:10;12.30;;;5.90;;
77453;SDS011;66538;53.150;18.160;2023-02-23T10:44:41;12.80;;;6.30;;
77453;SDS011;66538;53.150;18.160;2023-02-23T10:47:12;15.70;;;7.50;;
77453;SDS011;66538;53.150;18.160;2023-02-23T10:49:49;20.80;;;8.60;;
77453;SDS011;66538;53.150;18.160;2023-02-23T10:52:21;15.20;;;6.60;;
77453;SDS011;66538;53.150;18.160;2023-02-23T10:54:58;17.00;;;7.20;;
77453;SDS011;66538;53.150;18.160;2023-02-23T10:57:26;17.70;;;7.50;;
77453;SDS011;66538;53.150;18.160;2023-02-23T11:02:44;14.00;;;6.00;;
77453;SDS011;66538;53.150;18.160;2023-02-23T11:05:26;17.20;;;7.70;;
77453;SDS011;66538;53.150;18.160;2023-02-23T11:10:59;14.90;;;7.80;;
77453;SDS011;66538;53.150;18.160;2023-02-23T11:16:07;15.20;;;6.30;;
77453;SDS011;66538;53.150;18.160;2023-02-23T11:18:37;14.10;;;6.90;;
77453;SDS011;66538;53.150;18.160;2023-02-23T11:21:12;16.50;;;7.40;;
77453;SDS011;66538;53.150;18.160;2023-02-23T11:23:43;16.20;;;6.90;;
77453;SDS011;66538;53.150;18.160;2023-02-23T11:26:30;16.70;;;7.80;;
77453;SDS011;66538;53.150;18.160;2023-02-23T11:29:03;13.10;;;6.90;;
77453;SDS011;66538;53.150;18.160;2023-02-23T11:31:51;12.50;;;7.00;;
77453;SDS011;66538;53.150;18.160;2023-02-23T11:34:23;18.70;;;7.30;;
77453;SDS011;66538;53.150;18.160;2023-02-23T11:36:59;16.10;;;8.30;;
77453;SDS011;66538;53.150;18.160;2023-02-23T11:39:32;20.20;;;10.00;;
77453;SDS011;66538;53.150;18.160;2023-02-23T11:42:12;17.90;;;6.90;;
77453;SDS011;66538;53.150;18.160;2023-02-23T11:44:51;14.60;;;6.80;;
77453;SDS011;66538;53.150;18.160;2023-02-23T11:47:40;18.50;;;8.00;;
77453;SDS011;66538;53.150;18.160;2023-02-23T11:50:27;18.20;;;10.00;;
77453;SDS011;66538;53.150;18.160;2023-02-23T11:52:59;31.00;;;13.80;;
77453;SDS011;66538;53.150;18.160;2023-02-23T11:55:27;26.00;;;11.50;;
77453;SDS011;66538;53.150;18.160;2023-02-23T12:01:05;17.80;;;9.10;;
77453;SDS011;66538;53.150;18.160;2023-02-23T12:03:43;16.30;;;6.80;;
77453;SDS011;66538;53.150;18.160;2023-02-23T12:09:10;13.10;;;5.80;;
77453;SDS011;66538;53.150;18.160;2023-02-23T12:11:48;17.70;;;8.90;;
77453;SDS011;66538;53.150;18.160;2023-02-23T12:14:25;18.30;;;9.10;;
77453;SDS011;66538;53.150;18.160;2023-02-23T12:17:05;17.40;;;8.40;;
77453;SDS011;66538;53.150;18.160;2023-02-23T12:19:39;17.30;;;8.70;;
77453;SDS011;66538;53.150;18.160;2023-02-23T12:24:47;17.30;;;8.50;;
77453;SDS011;66538;53.150;18.160;2023-02-23T12:27:28;13.80;;;7.60;;
77453;SDS011;66538;53.150;18.160;2023-02-23T12:30:03;17.60;;;7.60;;
77453;SDS011;66538;53.150;18.160;2023-02-23T12:35:07;17.40;;;7.40;;
77453;SDS011;66538;53.150;18.160;2023-02-23T12:37:42;17.60;;;9.40;;
77453;SDS011;66538;53.150;18.160;2023-02-23T12:40:16;15.90;;;8.60;;
77453;SDS011;66538;53.150;18.160;2023-02-23T12:43:01;20.10;;;10.60;;
77453;SDS011;66538;53.150;18.160;2023-02-23T12:45:41;16.60;;;7.80;;
77453;SDS011;66538;53.150;18.160;2023-02-23T12:48:23;18.00;;;9.30;;
77453;SDS011;66538;53.150;18.160;2023-02-23T12:50:59;18.90;;;10.00;;
77453;SDS011;66538;53.150;18.160;2023-02-23T12:59:17;18.30;;;10.10;;
77453;SDS011;66538;53.150;18.160;2023-02-23T13:01:58;21.30;;;11.50;;
77453;SDS011;66538;53.150;18.160;2023-02-23T13:07:10;22.20;;;11.80;;
77453;SDS011;66538;53.150;18.160;2023-02-23T13:12:23;29.60;;;14.10;;
77453;SDS011;66538;53.150;18.160;2023-02-23T13:20:57;22.90;;;12.90;;
77453;SDS011;66538;53.150;18.160;2023-02-23T13:29:34;25.80;;;14.80;;
77453;SDS011;66538;53.150;18.160;2023-02-23T13:32:04;22.00;;;11.60;;
77453;SDS011;66538;53.150;18.160;2023-02-23T13:34:41;20.30;;;11.40;;
77453;SDS011;66538;53.150;18.160;2023-02-23T13:37:18;19.40;;;10.10;;
77453;SDS011;66538;53.150;18.160;2023-02-23T13:39:58;19.50;;;10.60;;
77453;SDS011;66538;53.150;18.160;2023-02-23T13:45:52;14.70;;;8.60;;
77453;SDS011;66538;53.150;18.160;2023-02-23T13:48:47;19.40;;;10.10;;
77453;SDS011;66538;53.150;18.160;2023-02-23T13:51:36;20.60;;;11.20;;
77453;SDS011;66538;53.150;18.160;2023-02-23T13:57:02;12.90;;;6.50;;
77453;SDS011;66538;53.150;18.160;2023-02-23T13:59:37;22.20;;;10.80;;
77453;SDS011;66538;53.150;18.160;2023-02-23T14:04:48;19.10;;;9.40;;
77453;SDS011;66538;53.150;18.160;2023-02-23T14:07:16;20.90;;;10.70;;
77453;SDS011;66538;53.150;18.160;2023-02-23T14:10:04;20.70;;;11.10;;
77453;SDS011;66538;53.150;18.160;2023-02-23T14:12:35;19.10;;;9.60;;
77453;SDS011;66538;53.150;18.160;2023-02-23T14:17:54;18.20;;;10.20;;
77453;SDS011;66538;53.150;18.160;2023-02-23T14:20:42;16.40;;;7.70;;
77453;SDS011;66538;53.150;18.160;2023-02-23T14:25:49;22.80;;;10.70;;
77453;SDS011;66538;53.150;18.160;2023-02-23T14:28:42;22.00;;;11.10;;
77453;SDS011;66538;53.150;18.160;2023-02-23T14:31:15;26.00;;;11.30;;
77453;SDS011;66538;53.150;18.160;2023-02-23T14:33:49;14.40;;;6.20;;
77453;SDS011;66538;53.150;18.160;2023-02-23T14:43:59;19.70;;;9.50;;
77453;SDS011;66538;53.150;18.160;2023-02-23T14:46:36;19.10;;;9.60;;
77453;SDS011;66538;53.150;18.160;2023-02-23T14:49:08;22.50;;;11.50;;
77453;SDS011;66538;53.150;18.160;2023-02-23T14:51:43;14.10;;;6.30;;
77453;SDS011;66538;53.150;18.160;2023-02-23T14:54:30;18.40;;;8.50;;
77453;SDS011;66538;53.150;18.160;2023-02-23T14:56:59;19.70;;;9.50;;
77453;SDS011;66538;53.150;18.160;2023-02-23T14:59:34;23.30;;;11.30;;
77453;SDS011;66538;53.150;18.160;2023-02-23T15:02:17;17.50;;;8.50;;
77453;SDS011;66538;53.150;18.160;2023-02-23T15:04:46;30.20;;;13.10;;
77453;SDS011;66538;53.150;18.160;2023-02-23T15:09:58;26.30;;;12.20;;
77453;SDS011;66538;53.150;18.160;2023-02-23T15:12:27;25.40;;;10.70;;
77453;SDS011;66538;53.150;18.160;2023-02-23T15:14:59;19.90;;;10.20;;
77453;SDS011;66538;53.150;18.160;2023-02-23T15:17:29;21.60;;;10.40;;
77453;SDS011;66538;53.150;18.160;2023-02-23T15:19:59;28.20;;;13.20;;
77453;SDS011;66538;53.150;18.160;2023-02-23T15:22:33;26.80;;;12.20;;
77453;SDS011;66538;53.150;18.160;2023-02-23T15:25:10;22.80;;;10.60;;
77453;SDS011;66538;53.150;18.160;2023-02-23T15:27:41;24.90;;;11.90;;
77453;SDS011;66538;53.150;18.160;2023-02-23T15:33:08;17.50;;;7.90;;
77453;SDS011;66538;53.150;18.160;2023-02-23T15:35:45;23.50;;;11.60;;
77453;SDS011;66538;53.150;18.160;2023-02-23T15:38:18;26.50;;;12.30;;
77453;SDS011;66538;53.150;18.160;2023-02-23T15:40:48;23.70;;;11.70;;
77453;SDS011;66538;53.150;18.160;2023-02-23T15:43:19;23.20;;;11.20;;
77453;SDS011;66538;53.150;18.160;2023-02-23T15:45:50;24.90;;;11.80;;
77453;SDS011;66538;53.150;18.160;2023-02-23T15:48:20;21.20;;;10.10;;
77453;SDS011;66538;53.150;18.160;2023-02-23T15:50:51;25.80;;;11.90;;
77453;SDS011;66538;53.150;18.160;2023-02-23T15:53:33;18.30;;;9.80;;
77453;SDS011;66538;53.150;18.160;2023-02-23T15:56:10;23.60;;;11.60;;
77453;SDS011;66538;53.150;18.160;2023-02-23T15:58:46;26.00;;;11.30;;
77453;SDS011;66538;53.150;18.160;2023-02-23T16:01:22;21.40;;;10.20;;
77453;SDS011;66538;53.150;18.160;2023-02-23T16:04:00;27.10;;;12.60;;
77453;SDS011;66538;53.150;18.160;2023-02-23T16:06:35;23.10;;;10.40;;
77453;SDS011;66538;53.150;18.160;2023-02-23T16:09:20;16.60;;;8.90;;
77453;SDS011;66538;53.150;18.160;2023-02-23T16:11:52;18.90;;;9.00;;
77453;SDS011;66538;53.150;18.160;2023-02-23T16:14:22;21.50;;;10.80;;
77453;SDS011;66538;53.150;18.160;2023-02-23T16:16:50;24.60;;;10.90;;
77453;SDS011;66538;53.150;18.160;2023-02-23T16:19:19;25.90;;;11.50;;
77453;SDS011;66538;53.150;18.160;2023-02-23T16:21:51;32.70;;;15.10;;
77453;SDS011;66538;53.150;18.160;2023-02-23T16:24:25;25.60;;;12.10;;
77453;SDS011;66538;53.150;18.160;2023-02-23T16:26:59;23.30;;;11.40;;
77453;SDS011;66538;53.150;18.160;2023-02-23T16:29:35;43.90;;;19.20;;
77453;SDS011;66538;53.150;18.160;2023-02-23T16:32:10;31.00;;;14.10;;
77453;SDS011;66538;53.150;18.160;2023-02-23T16:34:46;29.10;;;12.60;;
77453;SDS011;66538;53.150;18.160;2023-02-23T16:37:17;29.30;;;14.90;;
77453;SDS011;66538;53.150;18.160;2023-02-23T16:39:48;30.70;;;15.30;;
77453;SDS011;66538;53.150;18.160;2023-02-23T16:42:22;32.20;;;15.70;;
77453;SDS011;66538;53.150;18.160;2023-02-23T16:44:51;30.80;;;15.00;;
77453;SDS011;66538;53.150;18.160;2023-02-23T16:49:47;29.30;;;13.40;;
77453;SDS011;66538;53.150;18.160;2023-02-23T16:52:20;20.30;;;10.00;;
77453;SDS011;66538;53.150;18.160;2023-02-23T16:54:49;19.90;;;10.60;;